sensor_id;sensor_type;location;lat;lon;timestamp;pressure;altitude;pressure_sealevel;temperature;humidity
38806;BME280;25635;51.146;17.162;2023-02-17T00:00:10;100616.19;;;0.86;82.18
38806;BME280;25635;51.146;17.162;2023-02-17T00:02:58;100613.23;;;0.81;82.35
38806;BME280;25635;51.146;17.162;2023-02-17T00:05:25;100612.63;;;0.78;82.23
38806;BME280;25635;51.146;17.162;2023-02-17T00:07:52;100611.50;;;0.75;82.17
38806;BME280;25635;51.146;17.162;2023-02-17T00:10:18;100610.80;;;0.75;82.24
38806;BME280;25635;51.146;17.162;2023-02-17T00:12:45;100608.56;;;0.75;82.20
38806;BME280;25635;51.146;17.162;2023-02-17T00:15:11;100608.04;;;0.75;82.07
38806;BME280;25635;51.146;17.162;2023-02-17T00:17:37;100607.27;;;0.77;82.44
38806;BME280;25635;51.146;17.162;2023-02-17T00:20:04;100606.59;;;0.77;82.42
38806;BME280;25635;51.146;17.162;2023-02-17T00:22:30;100605.03;;;0.77;82.46
38806;BME280;25635;51.146;17.162;2023-02-17T00:24:56;100606.48;;;0.74;82.49
38806;BME280;25635;51.146;17.162;2023-02-17T00:27:22;100610.66;;;0.72;82.44
38806;BME280;25635;51.146;17.162;2023-02-17T00:29:48;100611.85;;;0.71;82.63
38806;BME280;25635;51.146;17.162;2023-02-17T00:32:14;100607.13;;;0.69;83.01
38806;BME280;25635;51.146;17.162;2023-02-17T00:34:40;100610.93;;;0.70;83.13
38806;BME280;25635;51.146;17.162;2023-02-17T00:37:06;100607.67;;;0.70;83.16
38806;BME280;25635;51.146;17.162;2023-02-17T00:39:32;100606.63;;;0.69;83.04
38806;BME280;25635;51.146;17.162;2023-02-17T00:41:58;100607.33;;;0.69;82.89
38806;BME280;25635;51.146;17.162;2023-02-17T00:44:24;100604.09;;;0.71;83.28
38806;BME280;25635;51.146;17.162;2023-02-17T00:46:50;100603.63;;;0.72;83.00
38806;BME280;25635;51.146;17.162;2023-02-17T00:49:20;100600.98;;;0.74;83.35
38806;BME280;25635;51.146;17.162;2023-02-17T00:51:46;100602.14;;;0.78;83.26
38806;BME280;25635;51.146;17.162;2023-02-17T00:54:13;100596.95;;;0.81;83.67
38806;BME280;25635;51.146;17.162;2023-02-17T00:56:40;100593.12;;;0.85;83.74
38806;BME280;25635;51.146;17.162;2023-02-17T00:59:07;100591.11;;;0.86;83.71
38806;BME280;25635;51.146;17.162;2023-02-17T01:01:33;100589.80;;;0.88;83.72
38806;BME280;25635;51.146;17.162;2023-02-17T01:04:00;100581.29;;;0.90;83.73
38806;BME280;25635;51.146;17.162;2023-02-17T01:06:28;100579.66;;;0.92;83.79
38806;BME280;25635;51.146;17.162;2023-02-17T01:08:55;100584.30;;;0.96;83.75
38806;BME280;25635;51.146;17.162;2023-02-17T01:11:24;100580.02;;;1.01;83.92
38806;BME280;25635;51.146;17.162;2023-02-17T01:13:51;100577.65;;;1.08;83.91
38806;BME280;25635;51.146;17.162;2023-02-17T01:16:26;100575.45;;;1.13;83.77
38806;BME280;25635;51.146;17.162;2023-02-17T01:18:54;100570.67;;;1.18;83.77
38806;BME280;25635;51.146;17.162;2023-02-17T01:21:24;100570.70;;;1.24;83.61
38806;BME280;25635;51.146;17.162;2023-02-17T01:23:52;100571.24;;;1.30;83.68
38806;BME280;25635;51.146;17.162;2023-02-17T01:26:20;100567.48;;;1.35;83.61
38806;BME280;25635;51.146;17.162;2023-02-17T01:28:47;100565.07;;;1.40;83.59
38806;BME280;25635;51.146;17.162;2023-02-17T01:31:13;100562.31;;;1.45;83.60
38806;BME280;25635;51.146;17.162;2023-02-17T01:33:40;100561.06;;;1.48;83.63
38806;BME280;25635;51.146;17.162;2023-02-17T01:36:09;100559.74;;;1.50;83.46
38806;BME280;25635;51.146;17.162;2023-02-17T01:38:36;100561.88;;;1.52;83.65
38806;BME280;25635;51.146;17.162;2023-02-17T01:41:03;100559.02;;;1.54;83.56
38806;BME280;25635;51.146;17.162;2023-02-17T01:43:30;100555.67;;;1.56;83.50
38806;BME280;25635;51.146;17.162;2023-02-17T01:46:05;100558.52;;;1.60;83.67
38806;BME280;25635;51.146;17.162;2023-02-17T01:48:33;100554.91;;;1.65;83.68
38806;BME280;25635;51.146;17.162;2023-02-17T01:53:38;100545.00;;;1.76;83.55
38806;BME280;25635;51.146;17.162;2023-02-17T01:56:07;100540.94;;;1.84;83.44
38806;BME280;25635;51.146;17.162;2023-02-17T01:58:34;100535.77;;;1.89;83.44
38806;BME280;25635;51.146;17.162;2023-02-17T02:01:02;100529.53;;;1.93;83.45
38806;BME280;25635;51.146;17.162;2023-02-17T02:03:31;100524.99;;;1.96;83.43
38806;BME280;25635;51.146;17.162;2023-02-17T02:06:00;100521.49;;;2.00;83.47
38806;BME280;25635;51.146;17.162;2023-02-17T02:08:33;100516.55;;;2.01;83.49
38806;BME280;25635;51.146;17.162;2023-02-17T02:11:03;100511.08;;;2.02;83.33
38806;BME280;25635;51.146;17.162;2023-02-17T02:13:30;100509.42;;;2.04;83.24
38806;BME280;25635;51.146;17.162;2023-02-17T02:16:02;100504.65;;;2.06;83.33
38806;BME280;25635;51.146;17.162;2023-02-17T02:18:36;100506.33;;;2.09;83.15
38806;BME280;25635;51.146;17.162;2023-02-17T02:24:27;100499.80;;;2.16;82.94
38806;BME280;25635;51.146;17.162;2023-02-17T02:32:35;100493.16;;;2.24;82.93
38806;BME280;25635;51.146;17.162;2023-02-17T02:35:32;100487.17;;;2.25;82.89
38806;BME280;25635;51.146;17.162;2023-02-17T02:38:21;100482.18;;;2.25;82.79
38806;BME280;25635;51.146;17.162;2023-02-17T02:40:53;100475.83;;;2.25;82.84
38806;BME280;25635;51.146;17.162;2023-02-17T02:43:22;100475.34;;;2.26;82.92
38806;BME280;25635;51.146;17.162;2023-02-17T02:45:49;100475.73;;;2.28;82.99
38806;BME280;25635;51.146;17.162;2023-02-17T02:48:15;100471.53;;;2.31;82.84
38806;BME280;25635;51.146;17.162;2023-02-17T02:51:12;100467.02;;;2.35;82.83
38806;BME280;25635;51.146;17.162;2023-02-17T02:53:48;100460.46;;;2.41;82.80
38806;BME280;25635;51.146;17.162;2023-02-17T02:56:45;100459.18;;;2.44;82.78
38806;BME280;25635;51.146;17.162;2023-02-17T03:02:28;100459.69;;;2.49;82.71
38806;BME280;25635;51.146;17.162;2023-02-17T03:10:26;100446.16;;;2.52;82.55
38806;BME280;25635;51.146;17.162;2023-02-17T03:12:52;100443.22;;;2.51;82.47
38806;BME280;25635;51.146;17.162;2023-02-17T03:15:28;100452.02;;;2.52;82.67
38806;BME280;25635;51.146;17.162;2023-02-17T03:17:55;100446.91;;;2.54;82.51
38806;BME280;25635;51.146;17.162;2023-02-17T03:20:21;100442.51;;;2.57;82.51
38806;BME280;25635;51.146;17.162;2023-02-17T03:22:48;100437.27;;;2.60;82.53
38806;BME280;25635;51.146;17.162;2023-02-17T03:25:15;100436.14;;;2.63;82.63
38806;BME280;25635;51.146;17.162;2023-02-17T03:27:41;100435.36;;;2.66;82.50
38806;BME280;25635;51.146;17.162;2023-02-17T03:30:08;100439.19;;;2.68;82.43
38806;BME280;25635;51.146;17.162;2023-02-17T03:32:35;100439.77;;;2.70;82.40
38806;BME280;25635;51.146;17.162;2023-02-17T03:35:01;100441.17;;;2.71;82.37
38806;BME280;25635;51.146;17.162;2023-02-17T03:37:27;100442.72;;;2.71;82.56
38806;BME280;25635;51.146;17.162;2023-02-17T03:39:53;100445.66;;;2.71;82.49
38806;BME280;25635;51.146;17.162;2023-02-17T03:42:19;100444.95;;;2.71;82.47
38806;BME280;25635;51.146;17.162;2023-02-17T03:44:45;100438.94;;;2.71;82.62
38806;BME280;25635;51.146;17.162;2023-02-17T03:47:11;100432.61;;;2.73;82.70
38806;BME280;25635;51.146;17.162;2023-02-17T03:49:37;100433.70;;;2.75;82.75
38806;BME280;25635;51.146;17.162;2023-02-17T03:52:03;100437.08;;;2.78;82.58
38806;BME280;25635;51.146;17.162;2023-02-17T03:54:29;100437.52;;;2.82;82.60
38806;BME280;25635;51.146;17.162;2023-02-17T03:56:55;100438.48;;;2.86;82.70
38806;BME280;25635;51.146;17.162;2023-02-17T03:59:21;100433.55;;;2.88;82.59
38806;BME280;25635;51.146;17.162;2023-02-17T04:01:47;100433.04;;;2.89;82.75
38806;BME280;25635;51.146;17.162;2023-02-17T04:04:13;100432.55;;;2.90;82.59
38806;BME280;25635;51.146;17.162;2023-02-17T04:06:39;100427.22;;;2.90;82.81
38806;BME280;25635;51.146;17.162;2023-02-17T04:09:05;100426.19;;;2.90;82.76
38806;BME280;25635;51.146;17.162;2023-02-17T04:11:31;100431.36;;;2.91;82.92
38806;BME280;25635;51.146;17.162;2023-02-17T04:13:57;100425.43;;;2.94;82.82
38806;BME280;25635;51.146;17.162;2023-02-17T04:16:23;100422.39;;;2.96;82.91
38806;BME280;25635;51.146;17.162;2023-02-17T04:18:49;100420.02;;;2.98;82.91
38806;BME280;25635;51.146;17.162;2023-02-17T04:21:15;100417.85;;;3.00;83.03
38806;BME280;25635;51.146;17.162;2023-02-17T04:23:41;100417.02;;;3.01;82.98
38806;BME280;25635;51.146;17.162;2023-02-17T04:26:07;100417.77;;;3.03;83.25
38806;BME280;25635;51.146;17.162;2023-02-17T04:28:37;100418.64;;;3.04;83.17
38806;BME280;25635;51.146;17.162;2023-02-17T04:31:04;100410.35;;;3.03;83.23
38806;BME280;25635;51.146;17.162;2023-02-17T04:33:30;100403.96;;;3.03;83.25
38806;BME280;25635;51.146;17.162;2023-02-17T04:35:56;100396.40;;;3.03;83.41
38806;BME280;25635;51.146;17.162;2023-02-17T04:38:29;100392.98;;;3.05;83.34
38806;BME280;25635;51.146;17.162;2023-02-17T04:40:56;100387.02;;;3.07;83.31
38806;BME280;25635;51.146;17.162;2023-02-17T04:43:25;100383.45;;;3.09;83.50
38806;BME280;25635;51.146;17.162;2023-02-17T04:45:52;100379.71;;;3.11;83.51
38806;BME280;25635;51.146;17.162;2023-02-17T04:48:18;100378.54;;;3.12;83.70
38806;BME280;25635;51.146;17.162;2023-02-17T04:50:45;100377.84;;;3.12;83.92
38806;BME280;25635;51.146;17.162;2023-02-17T04:53:11;100375.58;;;3.12;84.12
38806;BME280;25635;51.146;17.162;2023-02-17T04:55:39;100373.35;;;3.12;84.33
38806;BME280;25635;51.146;17.162;2023-02-17T04:58:05;100372.28;;;3.10;84.37
38806;BME280;25635;51.146;17.162;2023-02-17T05:00:32;100376.59;;;3.11;84.52
38806;BME280;25635;51.146;17.162;2023-02-17T05:02:58;100378.19;;;3.12;84.56
38806;BME280;25635;51.146;17.162;2023-02-17T05:05:25;100379.58;;;3.13;84.57
38806;BME280;25635;51.146;17.162;2023-02-17T05:07:51;100372.89;;;3.14;84.75
38806;BME280;25635;51.146;17.162;2023-02-17T05:10:18;100370.32;;;3.14;84.43
38806;BME280;25635;51.146;17.162;2023-02-17T05:12:44;100363.60;;;3.14;84.71
38806;BME280;25635;51.146;17.162;2023-02-17T05:15:11;100358.42;;;3.14;84.69
38806;BME280;25635;51.146;17.162;2023-02-17T05:17:37;100357.20;;;3.14;84.75
38806;BME280;25635;51.146;17.162;2023-02-17T05:20:05;100358.19;;;3.12;84.88
38806;BME280;25635;51.146;17.162;2023-02-17T05:22:31;100357.78;;;3.09;84.99
38806;BME280;25635;51.146;17.162;2023-02-17T05:24:57;100360.38;;;3.10;85.40
38806;BME280;25635;51.146;17.162;2023-02-17T05:27:24;100358.99;;;3.10;85.29
38806;BME280;25635;51.146;17.162;2023-02-17T05:29:50;100356.77;;;3.11;85.36
38806;BME280;25635;51.146;17.162;2023-02-17T05:32:16;100355.97;;;3.12;85.53
38806;BME280;25635;51.146;17.162;2023-02-17T05:34:43;100353.59;;;3.14;85.38
38806;BME280;25635;51.146;17.162;2023-02-17T05:37:09;100351.55;;;3.15;85.46
38806;BME280;25635;51.146;17.162;2023-02-17T05:39:35;100351.20;;;3.16;85.47
38806;BME280;25635;51.146;17.162;2023-02-17T05:42:02;100346.54;;;3.15;85.64
38806;BME280;25635;51.146;17.162;2023-02-17T05:44:28;100348.65;;;3.16;85.95
38806;BME280;25635;51.146;17.162;2023-02-17T05:46:55;100348.36;;;3.19;85.94
38806;BME280;25635;51.146;17.162;2023-02-17T05:49:21;100338.23;;;3.21;86.28
38806;BME280;25635;51.146;17.162;2023-02-17T05:51:47;100336.96;;;3.25;86.51
38806;BME280;25635;51.146;17.162;2023-02-17T05:54:13;100332.60;;;3.30;86.36
38806;BME280;25635;51.146;17.162;2023-02-17T05:56:39;100331.66;;;3.34;86.42
38806;BME280;25635;51.146;17.162;2023-02-17T05:59:05;100327.81;;;3.38;86.36
38806;BME280;25635;51.146;17.162;2023-02-17T06:01:31;100325.49;;;3.43;86.40
38806;BME280;25635;51.146;17.162;2023-02-17T06:03:58;100320.41;;;3.46;86.38
38806;BME280;25635;51.146;17.162;2023-02-17T06:06:24;100325.98;;;3.50;86.32
38806;BME280;25635;51.146;17.162;2023-02-17T06:08:50;100330.38;;;3.53;86.37
38806;BME280;25635;51.146;17.162;2023-02-17T06:11:16;100332.52;;;3.56;86.37
38806;BME280;25635;51.146;17.162;2023-02-17T06:13:42;100332.25;;;3.60;86.36
38806;BME280;25635;51.146;17.162;2023-02-17T06:16:08;100330.09;;;3.63;86.46
38806;BME280;25635;51.146;17.162;2023-02-17T06:18:34;100326.55;;;3.68;86.36
38806;BME280;25635;51.146;17.162;2023-02-17T06:21:01;100335.77;;;3.71;86.51
38806;BME280;25635;51.146;17.162;2023-02-17T06:23:27;100338.96;;;3.75;86.60
38806;BME280;25635;51.146;17.162;2023-02-17T06:25:53;100347.19;;;3.80;86.75
38806;BME280;25635;51.146;17.162;2023-02-17T06:28:19;100340.16;;;3.82;86.86
38806;BME280;25635;51.146;17.162;2023-02-17T06:30:45;100345.02;;;3.84;87.04
38806;BME280;25635;51.146;17.162;2023-02-17T06:33:11;100353.18;;;3.86;87.27
38806;BME280;25635;51.146;17.162;2023-02-17T06:35:38;100347.53;;;3.88;87.70
38806;BME280;25635;51.146;17.162;2023-02-17T06:38:04;100347.06;;;3.91;87.75
38806;BME280;25635;51.146;17.162;2023-02-17T06:40:30;100342.10;;;3.93;87.67
38806;BME280;25635;51.146;17.162;2023-02-17T06:42:56;100344.08;;;3.96;87.89
38806;BME280;25635;51.146;17.162;2023-02-17T06:45:22;100341.05;;;3.99;88.37
38806;BME280;25635;51.146;17.162;2023-02-17T06:47:48;100336.27;;;4.02;88.25
38806;BME280;25635;51.146;17.162;2023-02-17T06:50:15;100337.58;;;4.07;88.73
38806;BME280;25635;51.146;17.162;2023-02-17T06:52:41;100339.38;;;4.11;88.80
38806;BME280;25635;51.146;17.162;2023-02-17T06:55:07;100332.21;;;4.15;89.19
38806;BME280;25635;51.146;17.162;2023-02-17T06:57:34;100330.55;;;4.18;89.13
38806;BME280;25635;51.146;17.162;2023-02-17T07:00:00;100326.10;;;4.20;89.19
38806;BME280;25635;51.146;17.162;2023-02-17T07:02:26;100324.59;;;4.23;89.45
38806;BME280;25635;51.146;17.162;2023-02-17T07:04:52;100322.92;;;4.25;89.63
38806;BME280;25635;51.146;17.162;2023-02-17T07:07:18;100323.84;;;4.28;89.80
38806;BME280;25635;51.146;17.162;2023-02-17T07:09:44;100328.58;;;4.32;89.85
38806;BME280;25635;51.146;17.162;2023-02-17T07:12:10;100328.84;;;4.36;89.85
38806;BME280;25635;51.146;17.162;2023-02-17T07:14:36;100327.55;;;4.41;90.08
38806;BME280;25635;51.146;17.162;2023-02-17T07:17:03;100332.46;;;4.46;89.86
38806;BME280;25635;51.146;17.162;2023-02-17T07:19:29;100332.20;;;4.50;89.86
38806;BME280;25635;51.146;17.162;2023-02-17T07:21:55;100330.89;;;4.54;90.00
38806;BME280;25635;51.146;17.162;2023-02-17T07:24:21;100330.64;;;4.59;90.09
38806;BME280;25635;51.146;17.162;2023-02-17T07:26:48;100330.90;;;4.64;90.01
38806;BME280;25635;51.146;17.162;2023-02-17T07:29:14;100327.15;;;4.67;89.88
38806;BME280;25635;51.146;17.162;2023-02-17T07:31:40;100323.23;;;4.69;89.94
38806;BME280;25635;51.146;17.162;2023-02-17T07:34:06;100318.23;;;4.70;90.21
38806;BME280;25635;51.146;17.162;2023-02-17T07:36:32;100315.46;;;4.70;90.11
38806;BME280;25635;51.146;17.162;2023-02-17T07:38:58;100313.23;;;4.71;90.15
38806;BME280;25635;51.146;17.162;2023-02-17T07:41:25;100303.75;;;4.72;90.17
38806;BME280;25635;51.146;17.162;2023-02-17T07:43:54;100301.89;;;4.74;90.35
38806;BME280;25635;51.146;17.162;2023-02-17T07:46:20;100300.72;;;4.77;90.20
38806;BME280;25635;51.146;17.162;2023-02-17T07:48:47;100298.87;;;4.80;90.24
38806;BME280;25635;51.146;17.162;2023-02-17T07:51:16;100298.08;;;4.83;90.09
38806;BME280;25635;51.146;17.162;2023-02-17T07:53:43;100299.02;;;4.87;90.22
38806;BME280;25635;51.146;17.162;2023-02-17T07:56:12;100300.98;;;4.91;90.17
38806;BME280;25635;51.146;17.162;2023-02-17T07:58:39;100296.36;;;4.95;90.19
38806;BME280;25635;51.146;17.162;2023-02-17T08:01:10;100296.42;;;4.98;90.20
38806;BME280;25635;51.146;17.162;2023-02-17T08:03:37;100297.31;;;5.00;89.94
38806;BME280;25635;51.146;17.162;2023-02-17T08:06:04;100293.20;;;5.02;90.01
38806;BME280;25635;51.146;17.162;2023-02-17T08:08:33;100290.83;;;5.05;90.06
38806;BME280;25635;51.146;17.162;2023-02-17T08:11:25;100291.23;;;5.08;89.83
38806;BME280;25635;51.146;17.162;2023-02-17T08:14:10;100293.19;;;5.13;89.92
38806;BME280;25635;51.146;17.162;2023-02-17T08:16:36;100291.02;;;5.17;89.94
38806;BME280;25635;51.146;17.162;2023-02-17T08:19:02;100290.57;;;5.21;90.05
38806;BME280;25635;51.146;17.162;2023-02-17T08:21:29;100288.71;;;5.25;89.92
38806;BME280;25635;51.146;17.162;2023-02-17T08:23:55;100280.65;;;5.29;89.67
38806;BME280;25635;51.146;17.162;2023-02-17T08:26:22;100280.54;;;5.33;89.90
38806;BME280;25635;51.146;17.162;2023-02-17T08:28:48;100285.09;;;5.38;89.85
38806;BME280;25635;51.146;17.162;2023-02-17T08:31:24;100282.71;;;5.40;89.65
38806;BME280;25635;51.146;17.162;2023-02-17T08:33:50;100283.11;;;5.43;89.71
38806;BME280;25635;51.146;17.162;2023-02-17T08:36:17;100283.69;;;5.47;89.53
38806;BME280;25635;51.146;17.162;2023-02-17T08:38:47;100286.48;;;5.51;89.37
38806;BME280;25635;51.146;17.162;2023-02-17T08:41:27;100282.56;;;5.55;89.37
38806;BME280;25635;51.146;17.162;2023-02-17T08:43:55;100281.92;;;5.59;89.32
38806;BME280;25635;51.146;17.162;2023-02-17T08:46:22;100278.36;;;5.63;89.61
38806;BME280;25635;51.146;17.162;2023-02-17T08:48:48;100270.13;;;5.68;89.87
38806;BME280;25635;51.146;17.162;2023-02-17T08:51:16;100270.02;;;5.74;90.03
38806;BME280;25635;51.146;17.162;2023-02-17T08:53:43;100267.84;;;5.79;90.02
38806;BME280;25635;51.146;17.162;2023-02-17T08:56:10;100271.52;;;5.83;90.09
38806;BME280;25635;51.146;17.162;2023-02-17T08:58:37;100272.27;;;5.87;90.04
38806;BME280;25635;51.146;17.162;2023-02-17T09:01:03;100270.41;;;5.93;89.89
38806;BME280;25635;51.146;17.162;2023-02-17T09:03:29;100267.74;;;5.98;89.88
38806;BME280;25635;51.146;17.162;2023-02-17T09:05:56;100264.17;;;6.03;89.66
38806;BME280;25635;51.146;17.162;2023-02-17T09:08:23;100264.73;;;6.06;89.33
38806;BME280;25635;51.146;17.162;2023-02-17T09:10:50;100266.88;;;6.11;89.19
38806;BME280;25635;51.146;17.162;2023-02-17T09:13:17;100263.45;;;6.15;89.35
38806;BME280;25635;51.146;17.162;2023-02-17T09:15:44;100262.11;;;6.20;89.38
38806;BME280;25635;51.146;17.162;2023-02-17T09:18:10;100267.17;;;6.22;89.02
38806;BME280;25635;51.146;17.162;2023-02-17T09:20:37;100268.23;;;6.24;89.03
38806;BME280;25635;51.146;17.162;2023-02-17T09:23:05;100269.98;;;6.26;88.85
38806;BME280;25635;51.146;17.162;2023-02-17T09:25:32;100270.85;;;6.27;88.75
38806;BME280;25635;51.146;17.162;2023-02-17T09:27:58;100271.05;;;6.30;88.74
38806;BME280;25635;51.146;17.162;2023-02-17T09:30:24;100264.16;;;6.33;88.72
38806;BME280;25635;51.146;17.162;2023-02-17T09:32:50;100263.32;;;6.37;88.63
38806;BME280;25635;51.146;17.162;2023-02-17T09:35:17;100261.45;;;6.40;88.57
38806;BME280;25635;51.146;17.162;2023-02-17T09:37:44;100253.34;;;6.42;88.58
38806;BME280;25635;51.146;17.162;2023-02-17T09:40:20;100248.50;;;6.44;88.39
38806;BME280;25635;51.146;17.162;2023-02-17T09:42:47;100246.61;;;6.45;88.27
38806;BME280;25635;51.146;17.162;2023-02-17T09:45:34;100244.03;;;6.47;88.33
38806;BME280;25635;51.146;17.162;2023-02-17T09:48:05;100241.11;;;6.49;88.21
38806;BME280;25635;51.146;17.162;2023-02-17T09:50:39;100241.65;;;6.52;88.20
38806;BME280;25635;51.146;17.162;2023-02-17T09:53:47;100239.10;;;6.56;88.12
38806;BME280;25635;51.146;17.162;2023-02-17T09:56:09;100235.48;;;6.60;87.99
38806;BME280;25635;51.146;17.162;2023-02-17T09:58:44;100235.15;;;6.62;87.85
38806;BME280;25635;51.146;17.162;2023-02-17T10:01:18;100228.95;;;6.64;88.01
38806;BME280;25635;51.146;17.162;2023-02-17T10:06:17;100223.79;;;6.68;87.73
38806;BME280;25635;51.146;17.162;2023-02-17T10:08:51;100223.80;;;6.71;87.69
38806;BME280;25635;51.146;17.162;2023-02-17T10:11:32;100217.94;;;6.75;87.52
38806;BME280;25635;51.146;17.162;2023-02-17T10:14:05;100220.05;;;6.77;87.41
38806;BME280;25635;51.146;17.162;2023-02-17T10:16:43;100208.29;;;6.82;87.42
38806;BME280;25635;51.146;17.162;2023-02-17T10:22:02;100201.91;;;6.88;87.26
38806;BME280;25635;51.146;17.162;2023-02-17T10:24:30;100203.83;;;6.88;87.21
38806;BME280;25635;51.146;17.162;2023-02-17T10:32:23;100182.90;;;6.95;87.11
38806;BME280;25635;51.146;17.162;2023-02-17T10:40:11;100171.19;;;7.07;85.86
38806;BME280;25635;51.146;17.162;2023-02-17T10:42:38;100170.33;;;7.12;86.16
38806;BME280;25635;51.146;17.162;2023-02-17T10:45:11;100166.20;;;7.14;86.07
38806;BME280;25635;51.146;17.162;2023-02-17T10:47:40;100167.08;;;7.18;85.68
38806;BME280;25635;51.146;17.162;2023-02-17T10:50:17;100161.38;;;7.23;85.41
38806;BME280;25635;51.146;17.162;2023-02-17T10:52:44;100156.92;;;7.28;85.13
38806;BME280;25635;51.146;17.162;2023-02-17T10:57:43;100143.59;;;7.39;85.01
38806;BME280;25635;51.146;17.162;2023-02-17T11:00:17;100132.33;;;7.42;84.86
38806;BME280;25635;51.146;17.162;2023-02-17T11:02:46;100130.10;;;7.46;84.31
38806;BME280;25635;51.146;17.162;2023-02-17T11:05:42;100120.74;;;7.50;84.73
38806;BME280;25635;51.146;17.162;2023-02-17T11:08:30;100117.81;;;7.56;84.20
38806;BME280;25635;51.146;17.162;2023-02-17T11:11:00;100112.98;;;7.63;84.59
38806;BME280;25635;51.146;17.162;2023-02-17T11:13:35;100110.55;;;7.68;84.37
38806;BME280;25635;51.146;17.162;2023-02-17T11:16:02;100103.63;;;7.74;84.56
38806;BME280;25635;51.146;17.162;2023-02-17T11:18:32;100098.95;;;7.78;84.72
38806;BME280;25635;51.146;17.162;2023-02-17T11:21:08;100096.01;;;7.83;85.12
38806;BME280;25635;51.146;17.162;2023-02-17T11:23:39;100093.06;;;7.89;85.09
38806;BME280;25635;51.146;17.162;2023-02-17T11:26:17;100090.80;;;7.93;84.24
38806;BME280;25635;51.146;17.162;2023-02-17T11:28:46;100089.42;;;7.97;84.61
38806;BME280;25635;51.146;17.162;2023-02-17T11:31:22;100082.66;;;8.00;83.93
38806;BME280;25635;51.146;17.162;2023-02-17T11:33:49;100080.22;;;8.02;83.83
38806;BME280;25635;51.146;17.162;2023-02-17T11:36:25;100078.32;;;8.04;83.84
38806;BME280;25635;51.146;17.162;2023-02-17T11:38:51;100069.11;;;8.05;83.45
38806;BME280;25635;51.146;17.162;2023-02-17T11:41:17;100062.00;;;8.08;83.59
38806;BME280;25635;51.146;17.162;2023-02-17T11:43:56;100056.79;;;8.11;83.85
38806;BME280;25635;51.146;17.162;2023-02-17T11:55:22;100031.92;;;8.32;83.80
38806;BME280;25635;51.146;17.162;2023-02-17T12:09:16;99994.69;;;8.65;83.51
38806;BME280;25635;51.146;17.162;2023-02-17T12:12:21;99991.54;;;8.73;83.07
38806;BME280;25635;51.146;17.162;2023-02-17T12:17:47;99971.51;;;8.87;83.01
38806;BME280;25635;51.146;17.162;2023-02-17T12:20:38;99970.06;;;8.93;82.64
38806;BME280;25635;51.146;17.162;2023-02-17T12:31:30;99955.90;;;9.10;81.14
38806;BME280;25635;51.146;17.162;2023-02-17T12:34:06;99950.13;;;9.14;81.99
38806;BME280;25635;51.146;17.162;2023-02-17T12:36:39;99948.20;;;9.17;81.03
38806;BME280;25635;51.146;17.162;2023-02-17T12:39:27;99943.34;;;9.17;81.29
38806;BME280;25635;51.146;17.162;2023-02-17T12:44:54;99935.31;;;9.19;80.41
38806;BME280;25635;51.146;17.162;2023-02-17T12:47:35;99932.88;;;9.20;80.54
38806;BME280;25635;51.146;17.162;2023-02-17T12:51:19;99929.39;;;9.21;80.69
38806;BME280;25635;51.146;17.162;2023-02-17T12:53:15;99923.99;;;9.20;80.47
38806;BME280;25635;51.146;17.162;2023-02-17T12:55:50;99914.79;;;9.19;80.30
38806;BME280;25635;51.146;17.162;2023-02-17T12:58:28;99908.20;;;9.17;80.58
38806;BME280;25635;51.146;17.162;2023-02-17T13:03:33;99905.79;;;9.14;81.70
38806;BME280;25635;51.146;17.162;2023-02-17T13:08:57;99895.02;;;9.09;82.57
38806;BME280;25635;51.146;17.162;2023-02-17T13:11:31;99892.61;;;9.07;82.49
38806;BME280;25635;51.146;17.162;2023-02-17T13:14:10;99890.20;;;9.04;82.17
38806;BME280;25635;51.146;17.162;2023-02-17T13:16:44;99874.73;;;9.00;82.49
38806;BME280;25635;51.146;17.162;2023-02-17T13:19:13;99873.20;;;8.98;82.34
38806;BME280;25635;51.146;17.162;2023-02-17T13:21:52;99869.55;;;8.96;82.94
38806;BME280;25635;51.146;17.162;2023-02-17T13:24:50;99865.89;;;8.96;83.52
38806;BME280;25635;51.146;17.162;2023-02-17T13:30:01;99854.63;;;8.93;83.68
38806;BME280;25635;51.146;17.162;2023-02-17T13:32:33;99851.33;;;8.92;83.43
38806;BME280;25635;51.146;17.162;2023-02-17T13:35:05;99845.27;;;8.88;83.09
38806;BME280;25635;51.146;17.162;2023-02-17T13:40:07;99845.98;;;8.86;83.01
38806;BME280;25635;51.146;17.162;2023-02-17T13:42:53;99840.42;;;8.84;82.79
38806;BME280;25635;51.146;17.162;2023-02-17T13:45:30;99836.45;;;8.81;82.69
38806;BME280;25635;51.146;17.162;2023-02-17T13:48:09;99834.88;;;8.80;82.64
38806;BME280;25635;51.146;17.162;2023-02-17T13:50:47;99828.99;;;8.78;82.49
38806;BME280;25635;51.146;17.162;2023-02-17T13:53:27;99821.35;;;8.77;82.28
38806;BME280;25635;51.146;17.162;2023-02-17T13:56:01;99817.20;;;8.75;82.00
38806;BME280;25635;51.146;17.162;2023-02-17T13:58:30;99816.33;;;8.73;82.16
38806;BME280;25635;51.146;17.162;2023-02-17T14:00:57;99814.25;;;8.72;82.58
38806;BME280;25635;51.146;17.162;2023-02-17T14:03:40;99811.30;;;8.71;82.27
38806;BME280;25635;51.146;17.162;2023-02-17T14:06:18;99798.30;;;8.68;82.13
38806;BME280;25635;51.146;17.162;2023-02-17T14:08:46;99793.09;;;8.66;82.64
38806;BME280;25635;51.146;17.162;2023-02-17T14:11:17;99789.12;;;8.62;82.76
38806;BME280;25635;51.146;17.162;2023-02-17T14:13:47;99781.85;;;8.58;82.81
38806;BME280;25635;51.146;17.162;2023-02-17T14:16:34;99772.83;;;8.56;83.23
38806;BME280;25635;51.146;17.162;2023-02-17T14:21:40;99763.30;;;8.49;83.14
38806;BME280;25635;51.146;17.162;2023-02-17T14:24:26;99763.34;;;8.45;83.17
38806;BME280;25635;51.146;17.162;2023-02-17T14:26:59;99759.35;;;8.40;83.55
38806;BME280;25635;51.146;17.162;2023-02-17T14:29:37;99751.54;;;8.36;83.87